UKOH/KHE METAR and TAF weather

Enter ICAO airport designator
Station Type Date Time Source
UKOH METAR 2020/09/22 19:00 UTC NOAA

UKOH 221900Z 00000MPS CAVOK 14/02 Q1020 R03/CLRD// NOSIG


Station Type Date Time Source
UKOH Decoded METAR 2020/09/22 19:00 UTC NOAA

Station name not available
Sep 22, 2020 - 03:00 PM EDT / 2020.09.22 1900 UTC
Wind: Calm:0
Visibility: greater than 7 mile(s):0
Temperature: 57 F (14 C)
Dew Point: 35 F (2 C)
Relative Humidity: 44%
Pressure (altimeter): 30.12 in. Hg (1020 hPa)
ob: UKOH 221900Z 00000MPS CAVOK 14/02 Q1020 R03/CLRD// NOSIG
cycle: 19

Station Type Date Time Source
UKOH TAF UTC NOAA

Error!

Example: see airport list